Time;durP1;ratioP1;P1;durP2;ratioP2;P2;SDS_P1;SDS_P2;PMS_P1;PMS_P2;Temp;Humidity;BMP_temperature;BMP_pressure;BME280_temperature;BME280_humidity;BME280_pressure;Samples;Min_cycle;Max_cycle;Signal;HPM_P1;HPM_P2
2023/09/27 00:00:02;;;;;;;8.10;3.92;;;14.40;1.00;;;;;;6270143;22;20788;-67
2023/09/27 00:02:28;;;;;;;8.85;3.72;;;14.40;1.00;;;;;;6269663;22;20359;-67
2023/09/27 00:04:53;;;;;;;8.20;4.00;;;14.20;1.00;;;;;;6270713;22;20360;-67
2023/09/27 00:07:19;;;;;;;7.40;3.22;;;14.20;1.00;;;;;;6270567;22;20367;-67
2023/09/27 00:09:44;;;;;;;7.32;3.13;;;14.20;1.00;;;;;;6271613;22;20475;-67
2023/09/27 00:12:10;;;;;;;9.10;3.80;;;14.10;1.00;;;;;;6271207;22;20356;-67
2023/09/27 00:14:36;;;;;;;9.73;4.13;;;14.10;1.00;;;;;;6270539;22;20375;-67
2023/09/27 00:17:01;;;;;;;9.20;3.55;;;14.20;1.00;;;;;;6270622;22;20354;-67
2023/09/27 00:19:27;;;;;;;19.00;3.20;;;14.10;1.00;;;;;;6270799;22;20840;-67
2023/09/27 00:21:52;;;;;;;7.23;2.97;;;14.00;1.00;;;;;;6271045;22;20379;-67
2023/09/27 00:24:18;;;;;;;8.20;3.03;;;14.00;1.00;;;;;;6270732;22;20685;-67
2023/09/27 00:26:44;;;;;;;8.90;3.20;;;13.90;1.00;;;;;;6271385;22;20355;-67
2023/09/27 00:29:10;;;;;;;8.82;3.90;;;13.80;1.00;;;;;;6269803;22;20371;-67
2023/09/27 00:31:35;;;;;;;9.52;4.70;;;13.70;1.00;;;;;;6271125;22;20352;-67
2023/09/27 00:34:01;;;;;;;9.93;3.40;;;13.80;1.00;;;;;;6270834;22;20756;-67
2023/09/27 00:36:26;;;;;;;8.80;3.73;;;13.80;1.00;;;;;;6270521;22;20387;-67
2023/09/27 00:38:52;;;;;;;11.40;3.60;;;13.90;1.00;;;;;;6270535;22;20772;-67
2023/09/27 00:41:17;;;;;;;8.10;3.43;;;13.90;1.00;;;;;;6270494;22;20384;-67
2023/09/27 00:43:43;;;;;;;8.97;3.77;;;13.80;1.00;;;;;;6270576;22;20367;-67
2023/09/27 00:46:18;;;;;;;9.98;3.38;;;13.80;1.00;;;;;;6269697;22;20813;-67
2023/09/27 00:48:44;;;;;;;8.18;3.50;;;13.80;1.00;;;;;;6270732;22;20368;-67
2023/09/27 00:51:09;;;;;;;8.23;3.50;;;13.70;1.00;;;;;;6270463;22;20395;-67
2023/09/27 00:53:37;;;;;;;8.75;3.70;;;13.70;1.00;;;;;;6270446;22;20406;-68
2023/09/27 00:56:04;;;;;;;8.47;3.60;;;13.60;1.00;;;;;;6270516;22;20660;-67
2023/09/27 00:58:32;;;;;;;9.05;3.70;;;13.70;1.00;;;;;;6268253;22;21313;-67
2023/09/27 01:00:58;;;;;;;9.35;3.53;;;13.70;1.00;;;;;;6270117;22;20477;-66
2023/09/27 01:03:23;;;;;;;8.33;3.20;;;13.70;1.00;;;;;;6270576;22;20352;-66
2023/09/27 01:05:49;;;;;;;7.38;2.95;;;13.70;1.00;;;;;;6270418;22;20365;-65
2023/09/27 01:08:15;;;;;;;8.23;3.65;;;13.60;1.00;;;;;;6271249;22;20824;-67
2023/09/27 01:10:41;;;;;;;9.37;4.07;;;13.50;1.00;;;;;;6270769;22;20895;-66
2023/09/27 01:13:07;;;;;;;8.75;3.78;;;13.50;1.00;;;;;;6269987;22;20379;-67
2023/09/27 01:15:33;;;;;;;7.10;3.13;;;13.40;1.00;;;;;;6270903;22;20399;-66
2023/09/27 01:18:00;;;;;;;11.48;3.50;;;13.40;1.00;;;;;;6271082;22;20423;-66
2023/09/27 01:20:27;;;;;;;8.38;3.80;;;13.30;1.00;;;;;;6270582;22;20380;-66
2023/09/27 01:22:55;;;;;;;9.15;3.17;;;13.30;1.00;;;;;;6270576;22;20353;-66
2023/09/27 01:25:22;;;;;;;9.13;3.80;;;13.40;1.00;;;;;;6270955;22;20423;-66
2023/09/27 01:27:48;;;;;;;9.90;3.65;;;13.40;1.00;;;;;;6269764;22;20386;-66
2023/09/27 01:30:14;;;;;;;6.67;2.83;;;13.50;1.00;;;;;;6271214;22;20369;-66
2023/09/27 01:32:41;;;;;;;9.25;3.78;;;13.50;1.00;;;;;;6270817;22;20410;-66
2023/09/27 01:35:07;;;;;;;9.07;3.75;;;13.50;1.00;;;;;;6270305;22;20372;-66
2023/09/27 01:37:33;;;;;;;8.40;3.60;;;13.40;1.00;;;;;;6270190;22;20490;-66
2023/09/27 01:39:59;;;;;;;8.87;3.80;;;13.40;1.00;;;;;;6270638;22;20387;-66
2023/09/27 01:42:24;;;;;;;7.33;3.00;;;13.40;1.00;;;;;;6269717;22;20761;-66
2023/09/27 01:44:50;;;;;;;7.20;3.00;;;13.30;1.00;;;;;;6270690;22;20360;-66
2023/09/27 01:47:15;;;;;;;7.67;3.40;;;13.30;1.00;;;;;;6270212;22;20356;-66
2023/09/27 01:49:41;;;;;;;8.10;3.47;;;13.30;1.00;;;;;;6270906;22;20348;-66
2023/09/27 01:52:06;;;;;;;7.80;3.60;;;13.30;1.00;;;;;;6270829;22;20368;-66
2023/09/27 01:54:32;;;;;;;10.68;3.38;;;13.20;1.00;;;;;;6270171;22;20361;-66
2023/09/27 01:56:57;;;;;;;9.00;3.63;;;13.20;1.00;;;;;;6269475;22;20375;-66
2023/09/27 01:59:23;;;;;;;8.40;4.50;;;13.20;1.00;;;;;;6242922;22;20824;-66
2023/09/27 02:01:48;;;;;;;7.80;3.53;;;13.20;1.00;;;;;;6269877;22;20391;-66
2023/09/27 02:04:14;;;;;;;9.77;4.00;;;13.10;1.00;;;;;;6270907;22;20474;-66
2023/09/27 02:06:39;;;;;;;10.05;3.58;;;13.10;1.00;;;;;;6270519;22;20363;-66
2023/09/27 02:09:05;;;;;;;7.97;3.30;;;13.10;1.00;;;;;;6270326;22;20398;-67
2023/09/27 02:11:33;;;;;;;7.20;3.10;;;13.20;1.00;;;;;;6269762;22;20435;-66
2023/09/27 02:13:59;;;;;;;8.20;3.70;;;13.00;1.00;;;;;;6270434;22;20701;-66
2023/09/27 02:16:24;;;;;;;17.63;3.72;;;12.90;1.00;;;;;;6269761;22;20367;-66
2023/09/27 02:18:50;;;;;;;9.33;3.73;;;13.00;1.00;;;;;;6242789;22;20396;-66
2023/09/27 02:21:15;;;;;;;8.57;3.90;;;13.10;1.00;;;;;;6269943;22;20387;-66
2023/09/27 02:23:41;;;;;;;10.50;4.00;;;13.10;1.00;;;;;;6270537;22;20356;-66
2023/09/27 02:26:06;;;;;;;6.75;3.28;;;13.20;1.00;;;;;;6269842;22;20754;-66
2023/09/27 02:28:32;;;;;;;8.43;3.97;;;13.20;1.00;;;;;;6270359;22;20413;-67
2023/09/27 02:30:58;;;;;;;7.57;3.20;;;13.30;1.00;;;;;;6270066;22;20442;-67
2023/09/27 02:33:25;;;;;;;8.82;3.67;;;13.40;1.00;;;;;;6269954;22;20366;-66
2023/09/27 02:35:50;;;;;;;7.55;3.03;;;13.30;1.00;;;;;;6270192;22;20399;-66
2023/09/27 02:38:17;;;;;;;7.87;3.30;;;13.20;1.00;;;;;;6242861;22;20844;-66
2023/09/27 02:40:42;;;;;;;9.13;3.97;;;13.10;1.00;;;;;;6269937;22;20384;-67
2023/09/27 02:43:08;;;;;;;8.90;3.40;;;13.00;1.00;;;;;;6269981;22;20364;-66
2023/09/27 02:45:34;;;;;;;7.30;2.77;;;13.10;1.00;;;;;;6269789;22;20820;-67
2023/09/27 02:48:01;;;;;;;8.30;3.40;;;13.00;1.00;;;;;;6269756;22;20367;-66
2023/09/27 02:50:26;;;;;;;9.00;3.58;;;13.00;1.00;;;;;;6269913;22;20372;-66
2023/09/27 02:52:52;;;;;;;7.90;2.90;;;12.90;1.00;;;;;;6270031;22;20406;-67
2023/09/27 02:55:18;;;;;;;8.38;3.42;;;12.90;1.00;;;;;;6269520;22;20363;-67
2023/09/27 02:57:50;;;;;;;8.50;2.77;;;12.90;1.00;;;;;;6270675;22;20384;-66
2023/09/27 03:00:17;;;;;;;9.18;3.75;;;12.90;1.00;;;;;;6269137;22;20712;-67
2023/09/27 03:02:43;;;;;;;7.63;2.85;;;12.80;1.00;;;;;;6269500;22;20735;-66
2023/09/27 03:05:09;;;;;;;8.40;3.10;;;12.90;1.00;;;;;;6269472;22;20369;-66
2023/09/27 03:07:35;;;;;;;7.25;3.17;;;12.80;1.00;;;;;;6269848;22;20972;-66
2023/09/27 03:10:10;;;;;;;7.87;3.00;;;12.70;1.00;;;;;;6268310;22;20376;-66
2023/09/27 03:12:35;;;;;;;8.40;3.58;;;12.60;1.00;;;;;;6270022;22;20368;-66
2023/09/27 03:15:01;;;;;;;10.23;4.20;;;12.70;11.10;;;;;;6269933;22;20368;-66
2023/09/27 03:17:27;;;;;;;10.60;4.10;;;12.80;24.30;;;;;;6269546;22;20364;-66
2023/09/27 03:19:53;;;;;;;8.53;3.30;;;12.70;26.50;;;;;;6269312;22;20439;-66
2023/09/27 03:22:18;;;;;;;9.77;3.95;;;12.70;32.90;;;;;;6269215;22;20425;-66
2023/09/27 03:24:44;;;;;;;9.90;3.10;;;12.70;44.80;;;;;;6269718;22;20443;-66
2023/09/27 03:27:10;;;;;;;8.38;3.28;;;12.80;30.10;;;;;;6269773;22;20356;-66
2023/09/27 03:29:35;;;;;;;9.30;4.03;;;12.80;25.90;;;;;;6269747;22;20866;-66
2023/09/27 03:32:01;;;;;;;8.20;3.55;;;12.70;29.30;;;;;;6269306;22;20364;-66
2023/09/27 03:34:26;;;;;;;7.27;3.37;;;12.70;39.70;;;;;;6270755;22;20696;-66
2023/09/27 03:36:55;;;;;;;7.50;3.13;;;12.70;27.20;;;;;;6269537;22;20360;-66
2023/09/27 03:39:22;;;;;;;10.82;4.30;;;12.80;28.50;;;;;;6269321;22;20891;-66
2023/09/27 03:41:49;;;;;;;7.90;3.72;;;12.80;24.10;;;;;;6268839;22;20437;-66
2023/09/27 03:44:15;;;;;;;9.20;3.70;;;12.80;16.10;;;;;;6269878;22;20356;-66
2023/09/27 03:46:40;;;;;;;9.40;3.33;;;12.70;1.00;;;;;;6270547;22;20430;-66
2023/09/27 03:49:06;;;;;;;9.10;3.00;;;12.80;1.00;;;;;;6269586;22;20511;-66
2023/09/27 03:51:31;;;;;;;10.60;4.23;;;12.80;1.00;;;;;;6269280;22;20356;-66
2023/09/27 03:53:57;;;;;;;11.00;3.83;;;12.70;1.00;;;;;;6269024;22;20380;-66
2023/09/27 03:56:22;;;;;;;8.82;4.15;;;12.70;1.00;;;;;;6269361;22;20364;-66
2023/09/27 03:58:48;;;;;;;8.33;3.40;;;12.60;1.00;;;;;;6267741;22;20387;-66
2023/09/27 04:01:16;;;;;;;7.20;3.33;;;12.50;1.00;;;;;;6269273;22;20471;-66
2023/09/27 04:03:41;;;;;;;10.95;3.45;;;12.40;1.00;;;;;;6269677;22;20364;-66
2023/09/27 04:06:07;;;;;;;7.97;3.90;;;12.40;1.00;;;;;;6242161;22;20803;-67
2023/09/27 04:08:34;;;;;;;8.10;3.70;;;12.40;1.00;;;;;;6268759;22;20446;-66
2023/09/27 04:11:05;;;;;;;7.47;3.13;;;12.30;1.00;;;;;;6268992;22;20371;-67
2023/09/27 04:13:32;;;;;;;11.02;3.20;;;12.40;1.00;;;;;;6269009;22;20384;-66
2023/09/27 04:15:58;;;;;;;8.30;4.10;;;12.30;1.00;;;;;;6269736;22;20364;-67
2023/09/27 04:18:24;;;;;;;9.90;3.67;;;12.30;1.00;;;;;;6242350;22;20376;-67
2023/09/27 04:20:49;;;;;;;9.50;3.53;;;12.30;2.00;;;;;;6269674;22;20380;-67
2023/09/27 04:23:15;;;;;;;7.70;3.28;;;12.30;1.00;;;;;;6270625;22;20680;-68
2023/09/27 04:25:43;;;;;;;13.90;4.10;;;12.30;1.00;;;;;;6243461;22;20372;-67
2023/09/27 04:28:10;;;;;;;13.10;3.50;;;12.40;1.00;;;;;;6270415;22;20392;-67
2023/09/27 04:30:35;;;;;;;9.02;3.78;;;12.40;1.00;;;;;;6270019;22;20713;-67
2023/09/27 04:33:01;;;;;;;13.57;5.10;;;12.40;1.00;;;;;;6243050;22;20379;-67
2023/09/27 04:35:26;;;;;;;15.52;6.20;;;12.40;1.00;;;;;;6270262;22;20371;-68
2023/09/27 04:37:53;;;;;;;15.13;5.90;;;12.30;1.00;;;;;;6270339;22;20361;-68
2023/09/27 04:40:19;;;;;;;23.33;9.52;;;12.30;1.00;;;;;;6270372;22;20435;-68
2023/09/27 04:42:46;;;;;;;19.20;6.35;;;12.30;1.00;;;;;;6243384;22;20501;-68
2023/09/27 04:45:13;;;;;;;14.40;4.73;;;12.30;1.00;;;;;;6270910;22;20431;-68
2023/09/27 04:47:44;;;;;;;9.77;3.92;;;12.20;1.00;;;;;;6270177;22;20360;-69
2023/09/27 04:50:10;;;;;;;12.13;3.88;;;12.20;1.00;;;;;;6270938;22;20375;-67
2023/09/27 04:52:36;;;;;;;8.20;4.10;;;12.30;1.00;;;;;;6271308;22;20832;-68
2023/09/27 04:55:02;;;;;;;9.27;3.72;;;12.40;1.00;;;;;;6270007;22;20368;-68
2023/09/27 04:57:27;;;;;;;7.47;3.17;;;12.30;1.00;;;;;;6269890;22;20356;-69
2023/09/27 04:59:54;;;;;;;10.40;4.25;;;12.40;1.00;;;;;;6272564;22;20368;-69
2023/09/27 05:02:22;;;;;;;7.30;3.25;;;12.40;1.00;;;;;;6269429;22;20405;-68
2023/09/27 05:04:48;;;;;;;11.52;4.80;;;12.30;1.00;;;;;;6271839;22;20733;-68
2023/09/27 05:07:20;;;;;;;7.63;3.25;;;12.20;1.00;;;;;;6271657;22;20364;-68
2023/09/27 05:09:47;;;;;;;9.60;3.53;;;12.20;1.00;;;;;;6271274;22;20352;-68
2023/09/27 05:12:13;;;;;;;11.18;4.47;;;12.40;1.00;;;;;;6271574;22;20443;-68
2023/09/27 05:14:38;;;;;;;6.93;3.60;;;12.60;23.40;;;;;;6271178;22;20447;-68
2023/09/27 05:17:04;;;;;;;8.27;3.63;;;12.70;4.90;;;;;;6270660;22;20368;-68
2023/09/27 05:19:30;;;;;;;10.90;3.47;;;12.60;1.00;;;;;;6271082;22;20993;-68
2023/09/27 05:21:55;;;;;;;9.90;3.58;;;12.60;1.00;;;;;;6270359;22;20700;-68
2023/09/27 05:24:21;;;;;;;8.85;3.22;;;12.60;1.00;;;;;;6271207;22;20649;-68
2023/09/27 05:26:47;;;;;;;9.77;3.23;;;12.60;1.00;;;;;;6271135;22;20365;-68
2023/09/27 05:29:13;;;;;;;8.48;3.90;;;12.50;1.00;;;;;;6272952;22;20356;-68
2023/09/27 05:31:39;;;;;;;9.30;3.63;;;12.50;1.00;;;;;;6270948;22;20389;-68
2023/09/27 05:34:05;;;;;;;7.45;3.20;;;12.40;1.00;;;;;;6271516;22;20364;-68
2023/09/27 05:36:30;;;;;;;10.40;3.80;;;12.40;1.00;;;;;;6242834;22;20406;-68
2023/09/27 05:38:56;;;;;;;7.95;3.55;;;12.50;1.00;;;;;;6270248;22;20361;-68
2023/09/27 05:41:22;;;;;;;9.68;4.10;;;12.50;1.00;;;;;;6268392;22;20820;-68
2023/09/27 05:43:48;;;;;;;8.45;4.10;;;12.70;1.00;;;;;;6270730;22;20436;-69
2023/09/27 05:46:13;;;;;;;9.63;4.33;;;12.90;1.00;;;;;;6272170;22;20716;-68
2023/09/27 05:48:39;;;;;;;8.63;4.00;;;13.20;1.00;;;;;;6271010;22;20410;-68
2023/09/27 05:51:05;;;;;;;10.90;4.15;;;13.60;1.00;;;;;;6271570;22;20384;-68
2023/09/27 05:53:31;;;;;;;8.32;4.20;;;14.10;1.00;;;;;;6271332;22;20417;-68
2023/09/27 05:55:59;;;;;;;7.80;4.30;;;14.90;1.00;;;;;;6271063;22;20352;-69
2023/09/27 05:58:25;;;;;;;10.10;4.00;;;15.90;99.90;;;;;;6271104;22;20669;-68
2023/09/27 06:00:51;;;;;;;8.57;3.27;;;16.90;1.00;;;;;;6271319;22;20384;-69
2023/09/27 06:03:16;;;;;;;10.68;4.20;;;17.70;1.00;;;;;;6270973;22;20437;-69
2023/09/27 06:05:42;;;;;;;8.90;3.90;;;18.30;25.40;;;;;;6271215;22;20357;-67
2023/09/27 06:08:08;;;;;;;10.43;3.50;;;18.90;99.90;;;;;;6269870;22;20360;-68
2023/09/27 06:10:33;;;;;;;10.23;3.57;;;19.50;99.80;;;;;;6271407;22;20356;-68
2023/09/27 06:12:59;;;;;;;9.40;3.60;;;20.10;1.00;;;;;;6272066;22;20356;-67
2023/09/27 06:15:24;;;;;;;10.40;4.35;;;20.50;1.00;;;;;;6271358;22;20363;-68
2023/09/27 06:17:50;;;;;;;8.73;3.30;;;21.00;1.00;;;;;;6270998;22;20371;-67
2023/09/27 06:20:20;;;;;;;8.13;3.80;;;21.00;1.00;;;;;;6270777;22;20672;-68
2023/09/27 06:22:50;;;;;;;8.60;3.30;;;20.90;1.00;;;;;;6270830;22;20748;-68
2023/09/27 06:25:19;;;;;;;8.95;4.05;;;20.90;1.00;;;;;;6271037;22;20348;-68
2023/09/27 06:27:45;;;;;;;8.43;3.72;;;21.20;1.00;;;;;;6271328;22;20376;-68
2023/09/27 06:30:12;;;;;;;8.67;4.00;;;21.50;1.00;;;;;;6271783;22;20463;-68
2023/09/27 06:32:37;;;;;;;11.73;4.50;;;21.70;1.00;;;;;;6271208;22;20360;-68
2023/09/27 06:35:12;;;;;;;10.60;4.22;;;;;;;;;;6270469;22;20438;-68
2023/09/27 06:37:39;;;;;;;9.30;3.85;;;22.70;1.00;;;;;;6271356;22;20417;-68
2023/09/27 06:40:08;;;;;;;9.07;4.30;;;23.20;1.00;;;;;;6271671;22;20361;-69
2023/09/27 06:42:33;;;;;;;11.20;3.80;;;23.70;1.00;;;;;;6271610;22;20432;-68
2023/09/27 06:44:59;;;;;;;9.27;4.00;;;23.80;99.90;;;;;;6271789;22;20414;-68
2023/09/27 06:47:27;;;;;;;9.97;4.20;;;24.10;99.90;;;;;;6272039;22;20394;-68
2023/09/27 06:49:53;;;;;;;10.43;4.78;;;24.60;99.90;;;;;;6271430;22;20379;-68
2023/09/27 06:52:20;;;;;;;10.80;4.57;;;24.50;99.90;;;;;;6272223;22;20610;-68
2023/09/27 06:54:45;;;;;;;10.80;4.20;;;24.30;99.90;;;;;;6271635;22;20654;-68
2023/09/27 06:57:11;;;;;;;10.30;4.20;;;24.40;99.90;;;;;;6272511;22;20451;-68
2023/09/27 06:59:36;;;;;;;9.57;4.40;;;24.70;99.90;;;;;;6271514;22;20359;-68
2023/09/27 07:02:02;;;;;;;8.87;4.20;;;25.40;99.90;;;;;;6272068;22;20466;-68
2023/09/27 07:04:28;;;;;;;11.02;4.50;;;25.30;99.90;;;;;;6271333;22;20364;-68
2023/09/27 07:06:53;;;;;;;9.33;4.03;;;25.00;99.90;;;;;;6271335;22;20451;-68
2023/09/27 07:09:20;;;;;;;12.25;4.78;;;25.00;99.90;;;;;;6271722;22;20674;-68
2023/09/27 07:11:46;;;;;;;9.15;4.30;;;25.60;99.90;;;;;;6271410;22;20356;-68
2023/09/27 07:14:19;;;;;;;10.67;5.17;;;25.80;99.90;;;;;;6272073;22;20364;-68
2023/09/27 07:16:46;;;;;;;10.82;4.40;;;25.50;99.90;;;;;;6272256;22;20428;-68
2023/09/27 07:19:11;;;;;;;10.48;4.53;;;25.70;99.90;;;;;;6271730;22;20360;-68
2023/09/27 07:21:37;;;;;;;11.00;4.20;;;26.00;99.90;;;;;;6270455;22;20463;-69
2023/09/27 07:24:03;;;;;;;10.32;4.40;;;26.40;99.90;;;;;;6271746;22;20364;-68
2023/09/27 07:26:29;;;;;;;10.18;5.00;;;26.50;99.90;;;;;;6271649;22;20784;-68
2023/09/27 07:28:56;;;;;;;10.40;4.80;;;27.00;99.90;;;;;;6271418;22;20870;-68
2023/09/27 07:31:21;;;;;;;10.15;4.25;;;26.70;99.90;;;;;;6271760;22;20410;-68
2023/09/27 07:33:52;;;;;;;11.03;4.53;;;27.00;99.90;;;;;;6271041;22;20356;-68
2023/09/27 07:36:20;;;;;;;11.98;4.88;;;27.00;99.90;;;;;;6271429;22;20404;-69
2023/09/27 07:38:47;;;;;;;9.23;4.40;;;27.50;99.90;;;;;;6269221;22;20353;-69
2023/09/27 07:41:15;;;;;;;10.80;4.20;;;28.00;99.90;;;;;;6272100;22;20839;-69
2023/09/27 07:43:41;;;;;;;8.40;3.90;;;28.50;99.90;;;;;;6271601;22;20373;-68
2023/09/27 07:46:07;;;;;;;9.65;4.20;;;29.10;99.90;;;;;;6271343;22;20356;-69
2023/09/27 07:48:38;;;;;;;11.52;4.47;;;29.50;99.90;;;;;;6271693;22;21045;-69
2023/09/27 07:51:12;;;;;;;10.30;4.53;;;29.70;99.90;;;;;;6270763;22;20657;-69
2023/09/27 07:53:38;;;;;;;9.65;4.65;;;29.90;99.90;;;;;;6269790;22;20422;-68
2023/09/27 07:56:06;;;;;;;8.70;4.20;;;30.30;99.90;;;;;;6271351;22;20805;-68
2023/09/27 07:58:33;;;;;;;10.68;4.68;;;31.20;99.90;;;;;;6271850;22;20368;-70
2023/09/27 08:00:58;;;;;;;12.38;4.00;;;32.00;99.90;;;;;;6271435;22;20394;-70
2023/09/27 08:03:25;;;;;;;9.50;4.32;;;31.00;99.90;;;;;;6271456;22;20379;-69
2023/09/27 08:05:50;;;;;;;9.87;4.80;;;31.10;99.90;;;;;;6271298;22;20804;-69
2023/09/27 08:08:16;;;;;;;10.07;4.53;;;31.20;99.90;;;;;;6271874;22;20363;-69
2023/09/27 08:10:47;;;;;;;9.15;4.30;;;31.20;99.90;;;;;;6272836;22;20353;-69
2023/09/27 08:13:14;;;;;;;10.80;4.40;;;30.80;99.90;;;;;;6272853;22;20386;-69
2023/09/27 08:15:41;;;;;;;10.27;4.97;;;30.90;99.90;;;;;;6272314;22;20364;-69
2023/09/27 08:18:07;;;;;;;9.90;4.25;;;30.70;99.90;;;;;;6272539;22;20454;-68
2023/09/27 08:20:34;;;;;;;9.60;4.30;;;30.60;99.90;;;;;;6271631;22;20379;-69
2023/09/27 08:23:00;;;;;;;9.23;4.30;;;31.20;99.90;;;;;;6271950;22;20439;-69
2023/09/27 08:25:26;;;;;;;9.50;3.90;;;31.40;99.90;;;;;;6271603;22;20845;-69
2023/09/27 08:27:51;;;;;;;10.10;4.00;;;32.00;99.90;;;;;;6271851;22;20349;-69
2023/09/27 08:30:18;;;;;;;8.20;3.90;;;32.70;99.90;;;;;;6271610;22;20834;-69
2023/09/27 08:32:44;;;;;;;9.40;3.63;;;32.40;99.90;;;;;;6272736;22;20384;-69
2023/09/27 08:35:09;;;;;;;8.70;4.00;;;32.90;99.90;;;;;;6271816;22;20413;-68
2023/09/27 08:37:35;;;;;;;8.43;4.30;;;32.80;99.90;;;;;;6272343;22;20364;-68
2023/09/27 08:40:05;;;;;;;9.20;3.85;;;31.80;99.90;;;;;;6271837;22;20420;-69
2023/09/27 08:42:32;;;;;;;8.60;3.90;;;32.10;99.90;;;;;;6271401;22;20430;-69
2023/09/27 08:44:59;;;;;;;8.90;3.90;;;32.50;99.90;;;;;;6271499;22;20421;-67
2023/09/27 08:47:25;;;;;;;7.80;3.65;;;32.60;99.90;;;;;;6271613;22;20368;-68
2023/09/27 08:49:51;;;;;;;8.10;3.63;;;33.40;99.90;;;;;;6271368;22;20363;-69
2023/09/27 08:52:17;;;;;;;8.60;3.60;;;33.90;99.90;;;;;;6271448;22;20370;-68
2023/09/27 08:54:43;;;;;;;8.43;3.63;;;34.40;99.90;;;;;;6272019;22;20356;-69
2023/09/27 08:57:10;;;;;;;7.20;2.90;;;34.40;99.90;;;;;;6271761;22;20353;-69
2023/09/27 08:59:36;;;;;;;8.80;3.80;;;33.70;99.90;;;;;;6271304;22;20434;-69
2023/09/27 09:02:04;;;;;;;8.45;3.60;;;33.60;99.90;;;;;;6270877;22;20399;-69
2023/09/27 09:04:32;;;;;;;8.43;3.72;;;34.40;99.90;;;;;;6271234;22;20861;-69
2023/09/27 09:06:58;;;;;;;8.05;3.67;;;34.60;99.90;;;;;;6270719;22;20836;-69
2023/09/27 09:09:26;;;;;;;8.30;3.50;;;35.00;99.90;;;;;;6271305;22;20363;-69
2023/09/27 09:11:57;;;;;;;8.70;3.90;;;34.90;99.90;;;;;;6271731;22;20372;-69
2023/09/27 09:14:39;;;;;;;8.40;3.40;;;34.70;99.90;;;;;;6271656;22;20410;-69
2023/09/27 09:17:07;;;;;;;8.82;3.58;;;34.50;99.90;;;;;;6243307;22;20382;-69
2023/09/27 09:19:37;;;;;;;8.60;3.72;;;34.70;99.90;;;;;;6271226;22;20371;-68
2023/09/27 09:22:08;;;;;;;8.18;3.20;;;34.90;99.90;;;;;;6271226;22;20437;-69
2023/09/27 09:24:41;;;;;;;9.15;4.05;;;34.30;99.90;;;;;;6244527;22;20364;-69
2023/09/27 09:27:14;;;;;;;6.65;2.50;;;33.60;99.90;;;;;;6271426;22;20808;-69
2023/09/27 09:29:50;;;;;;;7.80;2.90;;;34.10;99.90;;;;;;6271360;22;20364;-68
2023/09/27 09:32:22;;;;;;;8.60;3.50;;;34.40;99.90;;;;;;6271036;22;20353;-69
2023/09/27 09:34:52;;;;;;;6.93;2.78;;;34.80;99.90;;;;;;6271428;22;20357;-69
2023/09/27 09:37:23;;;;;;;7.20;2.70;;;34.40;99.90;;;;;;6271847;22;20348;-68
2023/09/27 09:39:50;;;;;;;7.60;3.30;;;34.30;99.90;;;;;;6271529;22;20356;-68
2023/09/27 09:42:33;;;;;;;7.00;2.50;;;34.60;99.90;;;;;;6271941;22;20487;-69
2023/09/27 09:45:07;;;;;;;10.65;3.20;;;34.70;99.90;;;;;;6271583;22;20828;-69
2023/09/27 09:47:37;;;;;;;7.90;2.63;;;33.60;99.90;;;;;;6270858;22;20665;-69
2023/09/27 09:50:14;;;;;;;8.63;2.90;;;34.00;99.90;;;;;;6271508;22;20379;-69
2023/09/27 09:52:39;;;;;;;8.45;2.67;;;33.70;99.90;;;;;;6271450;22;20379;-69
2023/09/27 09:55:08;;;;;;;8.38;2.50;;;34.10;99.90;;;;;;6271150;22;20360;-69
2023/09/27 09:57:37;;;;;;;6.97;2.83;;;35.00;99.90;;;;;;6271889;22;20360;-69
2023/09/27 10:00:12;;;;;;;6.63;2.70;;;34.60;99.90;;;;;;6271480;22;20449;-69
2023/09/27 10:02:53;;;;;;;7.57;3.00;;;35.10;99.90;;;;;;6270757;22;20380;-70
2023/09/27 10:05:19;;;;;;;8.20;3.10;;;35.90;99.90;;;;;;6270954;22;20352;-69
2023/09/27 10:07:46;;;;;;;8.85;2.80;;;36.00;99.90;;;;;;6271936;22;20698;-69
2023/09/27 10:10:15;;;;;;;6.65;2.50;;;35.30;99.90;;;;;;6273548;22;20816;-69
2023/09/27 10:12:44;;;;;;;6.60;2.50;;;35.70;99.90;;;;;;6272323;22;20438;-69
2023/09/27 10:15:11;;;;;;;7.38;2.80;;;36.20;99.90;;;;;;6271358;22;20352;-69
2023/09/27 10:17:36;;;;;;;7.63;2.73;;;35.40;99.90;;;;;;6271353;22;20364;-69
2023/09/27 10:20:14;;;;;;;7.60;2.70;;;35.50;99.90;;;;;;6270604;22;20365;-69
2023/09/27 10:22:44;;;;;;;7.50;2.42;;;34.80;99.90;;;;;;6270939;22;20426;-69
2023/09/27 10:25:29;;;;;;;6.70;2.40;;;34.40;99.90;;;;;;6270684;22;20441;-69
2023/09/27 10:28:04;;;;;;;6.53;2.40;;;34.80;99.90;;;;;;6271335;22;20352;-69
2023/09/27 10:30:44;;;;;;;7.55;2.80;;;34.60;99.90;;;;;;6271274;22;20391;-69
2023/09/27 10:33:30;;;;;;;8.95;2.70;;;34.70;99.90;;;;;;6244633;22;20821;-69
2023/09/27 10:36:01;;;;;;;7.03;2.70;;;34.60;99.90;;;;;;6242838;22;20372;-69
2023/09/27 10:38:56;;;;;;;6.30;2.20;;;34.70;99.90;;;;;;6271531;22;20367;-69
2023/09/27 10:41:38;;;;;;;7.80;2.60;;;35.30;99.90;;;;;;6229867;22;20711;-69
2023/09/27 10:44:04;;;;;;;6.28;2.13;;;34.60;99.90;;;;;;6271591;22;20403;-69
2023/09/27 10:46:43;;;;;;;7.07;2.47;;;34.40;99.90;;;;;;6271903;22;20429;-69
2023/09/27 10:49:09;;;;;;;6.78;2.65;;;33.80;99.90;;;;;;6272275;22;20388;-68
2023/09/27 10:51:35;;;;;;;6.20;2.28;;;33.80;99.90;;;;;;6271522;22;20348;-70
2023/09/27 10:54:08;;;;;;;7.30;2.78;;;34.20;99.90;;;;;;6272096;22;20358;-69
2023/09/27 10:56:33;;;;;;;6.60;2.20;;;34.00;99.90;;;;;;6271018;22;20351;-69
2023/09/27 10:58:59;;;;;;;6.30;1.90;;;34.10;99.90;;;;;;6270907;22;20361;-69
2023/09/27 11:01:25;;;;;;;6.87;2.37;;;34.10;99.90;;;;;;6271551;22;20379;-69
2023/09/27 11:03:58;;;;;;;7.80;2.30;;;34.90;99.90;;;;;;6244827;22;20368;-68
2023/09/27 11:06:24;;;;;;;6.13;2.05;;;35.20;99.90;;;;;;6270824;22;20439;-68
2023/09/27 11:08:49;;;;;;;6.73;2.43;;;34.90;99.90;;;;;;6272894;22;20352;-68
2023/09/27 11:11:15;;;;;;;6.10;2.10;;;34.00;99.90;;;;;;6272959;22;20398;-68
2023/09/27 11:13:45;;;;;;;6.55;2.38;;;32.50;99.90;;;;;;6271196;22;20657;-68
2023/09/27 11:16:18;;;;;;;5.90;1.60;;;32.30;99.90;;;;;;6271744;22;20352;-68
2023/09/27 11:18:45;;;;;;;6.07;1.60;;;32.30;99.90;;;;;;6272350;22;20821;-68
2023/09/27 11:21:12;;;;;;;7.43;2.30;;;32.00;99.90;;;;;;6273604;22;20376;-68
2023/09/27 11:24:03;;;;;;;6.47;2.20;;;31.60;99.90;;;;;;6274793;22;20379;-68
2023/09/27 11:26:32;;;;;;;6.38;2.03;;;31.10;99.90;;;;;;6272367;22;20352;-68
2023/09/27 11:29:06;;;;;;;6.28;2.00;;;30.70;99.90;;;;;;6245148;22;20429;-67
2023/09/27 11:31:37;;;;;;;5.38;1.50;;;30.30;99.90;;;;;;6273551;22;20359;-67
2023/09/27 11:34:20;;;;;;;5.70;1.30;;;29.90;99.90;;;;;;6272520;22;20893;-68
2023/09/27 11:36:51;;;;;;;5.70;1.70;;;29.90;99.90;;;;;;6272268;22;20360;-68
2023/09/27 11:39:28;;;;;;;6.00;1.40;;;29.80;99.90;;;;;;6273053;22;20352;-68
2023/09/27 11:42:00;;;;;;;5.40;1.40;;;29.80;99.90;;;;;;6272404;22;20463;-68
2023/09/27 11:44:27;;;;;;;6.82;1.50;;;29.50;99.90;;;;;;6271705;22;20693;-68
2023/09/27 11:47:10;;;;;;;5.20;1.00;;;29.40;99.90;;;;;;6271339;22;20364;-68
2023/09/27 11:49:35;;;;;;;5.10;0.90;;;29.50;99.90;;;;;;6271612;22;20366;-68
2023/09/27 11:52:02;;;;;;;4.67;0.80;;;29.70;99.90;;;;;;6271689;22;20443;-68
2023/09/27 11:54:29;;;;;;;5.20;1.35;;;29.70;99.90;;;;;;6271986;22;20707;-67
2023/09/27 11:56:54;;;;;;;5.30;1.67;;;29.70;99.90;;;;;;6270973;22;20368;-69
2023/09/27 11:59:20;;;;;;;5.57;1.17;;;29.80;99.90;;;;;;6271582;22;20680;-68
2023/09/27 12:01:46;;;;;;;6.90;1.80;;;29.90;99.90;;;;;;6271963;22;20394;-68
2023/09/27 12:04:11;;;;;;;5.40;1.33;;;29.80;99.90;;;;;;6272054;22;20386;-68
2023/09/27 12:06:37;;;;;;;5.07;1.00;;;29.90;99.90;;;;;;6272348;22;20361;-67
2023/09/27 12:09:05;;;;;;;5.40;1.30;;;29.90;99.90;;;;;;6271501;22;20363;-68
2023/09/27 12:11:31;;;;;;;5.40;1.20;;;29.70;99.90;;;;;;6271247;22;20382;-67
2023/09/27 12:13:57;;;;;;;5.10;1.00;;;29.70;99.90;;;;;;6244364;22;20374;-67
2023/09/27 12:16:24;;;;;;;5.65;1.27;;;29.90;99.90;;;;;;6271727;22;20724;-68
2023/09/27 12:18:49;;;;;;;5.90;0.80;;;29.90;99.90;;;;;;6271314;22;20364;-68
2023/09/27 12:21:15;;;;;;;4.70;0.83;;;29.70;99.90;;;;;;6272167;22;20382;-68
2023/09/27 12:23:43;;;;;;;5.97;1.30;;;29.90;99.90;;;;;;6272202;22;20433;-68
2023/09/27 12:26:09;;;;;;;5.10;1.30;;;29.80;99.90;;;;;;6271011;22;20697;-69
2023/09/27 12:28:36;;;;;;;6.00;1.10;;;29.80;99.90;;;;;;6271427;22;20372;-69
2023/09/27 12:31:06;;;;;;;7.50;1.30;;;29.90;99.90;;;;;;6271640;22;20364;-69
2023/09/27 12:33:32;;;;;;;5.28;1.20;;;29.90;99.90;;;;;;6271523;22;20367;-68
2023/09/27 12:35:58;;;;;;;6.80;0.97;;;29.70;99.90;;;;;;6271465;22;20441;-68
2023/09/27 12:38:24;;;;;;;6.00;1.50;;;29.70;99.90;;;;;;6271478;22;20361;-68
2023/09/27 12:40:50;;;;;;;5.28;1.30;;;29.70;99.90;;;;;;6270464;22;20406;-67
2023/09/27 12:43:16;;;;;;;5.90;1.65;;;29.70;99.90;;;;;;6243815;22;20766;-68
2023/09/27 12:45:41;;;;;;;4.90;1.27;;;29.90;99.90;;;;;;6271708;22;20356;-68
2023/09/27 12:48:07;;;;;;;6.10;1.83;;;30.00;99.90;;;;;;6271262;22;20400;-69
2023/09/27 12:50:33;;;;;;;5.80;1.40;;;29.90;99.90;;;;;;6270137;22;20442;-68